Time;durP1;ratioP1;P1;durP2;ratioP2;P2;SDS_P1;SDS_P2;PMS_P1;PMS_P2;Temp;Humidity;BMP_temperature;BMP_pressure;BME280_temperature;BME280_humidity;BME280_pressure;Samples;Min_cycle;Max_cycle;Signal;HPM_P1;HPM_P2
2022/08/01 00:00:00;;;;;;;29.38;13.57;;;;;;;19.19;100.00;101520.69;4989419;28;20121;-65
2022/08/01 00:02:26;;;;;;;22.55;12.25;;;;;;;19.19;100.00;101523.38;4988020;28;20062;-65
2022/08/01 00:04:54;;;;;;;23.83;13.48;;;;;;;19.20;100.00;101519.69;5001867;28;20065;-64
2022/08/01 00:07:19;;;;;;;22.05;13.40;;;;;;;19.14;100.00;101519.25;5002141;28;20501;-64
2022/08/01 00:09:45;;;;;;;29.65;13.95;;;;;;;19.20;100.00;101525.09;5000633;28;20046;-64
2022/08/01 00:12:10;;;;;;;27.35;13.10;;;;;;;19.22;100.00;101515.84;5001614;28;20049;-65
2022/08/01 00:14:36;;;;;;;24.80;14.07;;;;;;;19.31;100.00;101527.69;5001460;28;20056;-65
2022/08/01 00:17:01;;;;;;;24.48;13.32;;;;;;;19.27;100.00;101526.25;5000508;28;20557;-65
2022/08/01 00:19:27;;;;;;;28.77;15.20;;;;;;;19.28;100.00;101528.84;4999526;28;20037;-65
2022/08/01 00:21:52;;;;;;;25.88;14.13;;;;;;;19.29;100.00;101526.97;5000009;28;20038;-65
2022/08/01 00:24:18;;;;;;;28.85;14.73;;;;;;;19.39;100.00;101531.44;5001364;28;20430;-65
2022/08/01 00:26:43;;;;;;;32.30;17.17;;;;;;;19.20;100.00;101536.75;5000920;28;20260;-64
2022/08/01 00:29:09;;;;;;;27.98;15.65;;;;;;;19.24;100.00;101534.66;4983182;28;20037;-64
2022/08/01 00:31:34;;;;;;;30.45;16.90;;;;;;;19.27;100.00;101527.09;4999601;28;20033;-65
2022/08/01 00:34:00;;;;;;;28.02;16.55;;;;;;;19.21;100.00;101529.50;5001052;28;20721;-65
2022/08/01 00:36:25;;;;;;;27.15;16.95;;;;;;;19.15;100.00;101520.94;5001330;28;20501;-65
2022/08/01 00:38:51;;;;;;;28.60;15.82;;;;;;;19.12;100.00;101528.47;4994126;28;20120;-65
2022/08/01 00:41:17;;;;;;;26.88;16.13;;;;;;;19.14;100.00;101534.59;4993717;28;20077;-65
2022/08/01 00:43:43;;;;;;;31.42;14.90;;;;;;;19.07;100.00;101533.41;5000400;28;20127;-65
2022/08/01 00:46:08;;;;;;;24.67;13.90;;;;;;;19.08;100.00;101535.16;5000214;28;20554;-65
2022/08/01 00:48:34;;;;;;;25.15;13.90;;;;;;;19.13;100.00;101532.91;4998606;28;20493;-65
2022/08/01 00:50:59;;;;;;;24.88;13.82;;;;;;;19.14;100.00;101532.75;5000170;28;20038;-65
2022/08/01 00:53:25;;;;;;;24.13;13.27;;;;;;;19.04;100.00;101528.31;4999226;28;20514;-65
2022/08/01 00:55:51;;;;;;;29.35;13.23;;;;;;;18.99;100.00;101531.41;4987813;28;20398;-65
2022/08/01 00:58:17;;;;;;;27.48;14.48;;;;;;;19.03;100.00;101523.91;4972997;28;20038;-65
2022/08/01 01:00:42;;;;;;;24.67;14.02;;;;;;;18.98;100.00;101526.16;4979643;28;20057;-65
2022/08/01 01:03:08;;;;;;;30.23;14.23;;;;;;;19.01;100.00;101520.44;4999659;28;20052;-65
2022/08/01 01:05:45;;;;;;;21.55;12.13;;;;;;;18.91;100.00;101523.09;5000193;28;20053;-64
2022/08/01 01:08:26;;;;;;;32.65;13.55;;;;;;;18.93;100.00;101523.00;4986806;28;20048;-65
2022/08/01 01:10:57;;;;;;;19.33;11.85;;;;;;;18.95;100.00;101523.69;4997608;28;20096;-65
2022/08/01 01:13:35;;;;;;;20.83;12.13;;;;;;;19.04;100.00;101529.16;4998995;28;20038;-64
2022/08/01 01:16:14;;;;;;;19.20;10.93;;;;;;;18.98;100.00;101523.44;4998606;28;20067;-64
2022/08/01 01:18:46;;;;;;;18.98;9.77;;;;;;;19.01;100.00;101524.00;4999128;28;20091;-65
2022/08/01 01:21:18;;;;;;;18.85;10.35;;;;;;;18.97;100.00;101525.25;5000174;28;20042;-65
2022/08/01 01:24:11;;;;;;;18.65;11.55;;;;;;;19.03;100.00;101519.34;5000073;28;20069;-65
2022/08/01 01:27:06;;;;;;;15.07;9.48;;;;;;;18.95;100.00;101518.28;4993627;28;20614;-65
2022/08/01 01:29:38;;;;;;;15.15;9.00;;;;;;;18.94;100.00;101522.00;4980932;28;20088;-65
2022/08/01 01:32:16;;;;;;;16.70;9.27;;;;;;;18.95;100.00;101526.41;4983317;28;20069;-65
2022/08/01 01:34:44;;;;;;;13.80;8.82;;;;;;;18.92;100.00;101523.97;4994357;28;20498;-64
2022/08/01 01:37:15;;;;;;;14.93;8.93;;;;;;;18.93;100.00;101531.09;5000712;28;20096;-65
2022/08/01 01:39:42;;;;;;;14.20;8.43;;;;;;;18.94;100.00;101530.09;4999168;28;20141;-64
2022/08/01 01:42:08;;;;;;;17.27;10.57;;;;;;;18.93;100.00;101526.56;4982236;28;20042;-65
2022/08/01 01:44:35;;;;;;;17.13;10.02;;;;;;;19.02;100.00;101527.56;4998389;28;20069;-65
2022/08/01 01:47:02;;;;;;;18.67;10.07;;;;;;;18.92;100.00;101537.47;4998274;28;20037;-65
2022/08/01 01:49:29;;;;;;;15.93;9.80;;;;;;;19.02;100.00;101539.22;4999709;28;20046;-65
2022/08/01 01:51:57;;;;;;;25.58;12.65;;;;;;;18.93;100.00;101537.38;4999390;28;20060;-65
2022/08/01 01:54:25;;;;;;;25.73;12.98;;;;;;;18.90;100.00;101532.22;4998050;28;20045;-67
2022/08/01 01:56:52;;;;;;;26.17;15.70;;;;;;;18.85;100.00;101539.88;4991325;28;20064;-65
2022/08/01 01:59:20;;;;;;;28.42;16.23;;;;;;;18.82;100.00;101538.28;4999766;28;20049;-65
2022/08/01 02:01:49;;;;;;;32.67;18.13;;;;;;;18.83;100.00;101536.47;4980305;28;20747;-65
2022/08/01 02:04:16;;;;;;;31.02;17.25;;;;;;;18.86;100.00;101534.31;4999062;28;20049;-64
2022/08/01 02:06:46;;;;;;;33.33;18.23;;;;;;;18.88;100.00;101540.47;4999362;28;20058;-65
2022/08/01 02:09:15;;;;;;;32.17;18.25;;;;;;;18.81;100.00;101533.88;4999301;28;20030;-64
2022/08/01 02:11:44;;;;;;;31.60;17.63;;;;;;;18.87;100.00;101538.72;4986811;28;20054;-65
2022/08/01 02:14:11;;;;;;;30.67;16.25;;;;;;;18.90;100.00;101540.31;4994326;28;20045;-65
2022/08/01 02:16:40;;;;;;;33.10;17.38;;;;;;;18.97;100.00;101527.13;4997525;28;20391;-65
2022/08/01 02:19:06;;;;;;;28.85;15.55;;;;;;;18.86;100.00;101537.03;4998870;28;20034;-65
2022/08/01 02:21:44;;;;;;;32.63;17.98;;;;;;;18.79;100.00;101530.44;4999065;28;20794;-65
2022/08/01 02:24:40;;;;;;;32.28;16.90;;;;;;;18.82;100.00;101532.88;4998997;28;20092;-65
2022/08/01 02:27:10;;;;;;;32.95;17.15;;;;;;;18.79;100.00;101538.56;4999560;28;20038;-65
2022/08/01 02:30:00;;;;;;;33.35;16.02;;;;;;;18.82;100.00;101537.41;4999037;28;20052;-65
2022/08/01 02:32:57;;;;;;;30.38;16.05;;;;;;;18.73;100.00;101538.25;4999495;28;20064;-65
2022/08/01 02:35:27;;;;;;;30.42;15.82;;;;;;;18.71;100.00;101541.06;4988212;28;20901;-65
2022/08/01 02:37:56;;;;;;;27.58;15.35;;;;;;;18.62;100.00;101540.00;4997469;28;20045;-66
2022/08/01 02:40:23;;;;;;;32.08;15.77;;;;;;;18.63;100.00;101536.31;4990982;28;20404;-66
2022/08/01 02:42:50;;;;;;;30.88;15.90;;;;;;;18.68;100.00;101530.53;4991741;28;20030;-65
2022/08/01 02:45:22;;;;;;;31.52;15.38;;;;;;;18.67;100.00;101536.00;4999483;28;20475;-65
2022/08/01 02:47:49;;;;;;;26.83;14.77;;;;;;;18.73;100.00;101536.41;4999179;28;20080;-65
2022/08/01 02:50:17;;;;;;;30.52;14.35;;;;;;;18.77;100.00;101534.25;4998630;28;20912;-65
2022/08/01 02:52:47;;;;;;;25.48;13.60;;;;;;;18.61;100.00;101535.56;4998557;28;20750;-65
2022/08/01 02:55:13;;;;;;;33.10;13.70;;;;;;;18.63;100.00;101535.44;4998674;28;20391;-65
2022/08/01 02:57:41;;;;;;;26.02;13.57;;;;;;;18.57;100.00;101549.47;4997154;28;20463;-65
2022/08/01 03:00:08;;;;;;;23.98;12.98;;;;;;;18.52;100.00;101538.19;4998247;28;20707;-65
2022/08/01 03:02:34;;;;;;;26.50;13.25;;;;;;;18.61;100.00;101545.50;4989703;28;20050;-64
2022/08/01 03:05:01;;;;;;;21.60;12.07;;;;;;;18.53;100.00;101535.38;4992930;28;20493;-65
2022/08/01 03:07:29;;;;;;;22.83;12.70;;;;;;;18.53;100.00;101543.47;4985121;28;20033;-65
2022/08/01 03:09:56;;;;;;;27.70;11.73;;;;;;;18.51;100.00;101540.03;4980970;28;20077;-66
2022/08/01 03:12:25;;;;;;;24.17;11.18;;;;;;;18.50;100.00;101554.53;4981208;28;20049;-65
2022/08/01 03:14:54;;;;;;;25.00;11.35;;;;;;;18.43;100.00;101544.41;4999072;28;20211;-65
2022/08/01 03:17:22;;;;;;;24.80;12.00;;;;;;;18.42;100.00;101553.47;4977321;28;20049;-66
2022/08/01 03:19:49;;;;;;;22.17;11.20;;;;;;;18.39;100.00;101543.81;4988700;28;20057;-65
2022/08/01 03:22:16;;;;;;;20.38;11.15;;;;;;;18.41;100.00;101541.81;4984575;28;20038;-65
2022/08/01 03:24:44;;;;;;;20.95;11.02;;;;;;;18.33;100.00;101541.63;4982869;28;20041;-65
2022/08/01 03:27:11;;;;;;;20.70;10.25;;;;;;;18.29;100.00;101545.56;5002333;28;20052;-65
2022/08/01 03:29:37;;;;;;;23.27;10.70;;;;;;;18.34;100.00;101541.50;5002639;28;20102;-65
2022/08/01 03:32:03;;;;;;;24.88;10.85;;;;;;;18.28;100.00;101550.13;5000901;28;20052;-65
2022/08/01 03:34:29;;;;;;;17.92;10.55;;;;;;;18.34;100.00;101544.19;4998358;28;20040;-65
2022/08/01 03:37:37;;;;;;;17.42;9.90;;;;;;;18.34;100.00;101541.50;4993172;28;20505;-66
2022/08/01 03:40:09;;;;;;;18.17;9.57;;;;;;;18.34;100.00;101546.91;4960484;28;20057;-65
2022/08/01 03:42:46;;;;;;;;;;;;;;;18.34;100.00;101549.59;4960855;28;20065;-66
2022/08/01 03:45:18;;;;;;;20.75;9.40;;;;;;;18.31;100.00;101546.28;4960306;28;19922;-65
2022/08/01 03:47:46;;;;;;;14.52;8.38;;;;;;;18.37;100.00;101549.34;4960061;28;20121;-65
2022/08/01 03:50:14;;;;;;;15.00;7.70;;;;;;;18.31;100.00;101546.28;4960441;28;20062;-65
2022/08/01 03:52:43;;;;;;;15.68;8.27;;;;;;;18.31;100.00;101548.97;4944682;28;20055;-65
2022/08/01 03:55:11;;;;;;;15.20;7.47;;;;;;;18.29;100.00;101546.44;4959515;28;20954;-65
2022/08/01 03:57:37;;;;;;;11.52;6.55;;;;;;;18.32;100.00;101550.69;4959756;28;20042;-65
2022/08/01 04:00:08;;;;;;;12.48;6.30;;;;;;;18.34;100.00;101543.34;4959891;28;20038;-65
2022/08/01 04:02:41;;;;;;;12.85;7.30;;;;;;;18.34;100.00;101540.63;4959486;28;20054;-65
2022/08/01 04:05:07;;;;;;;12.95;7.85;;;;;;;18.34;100.00;101546.91;4959467;28;20069;-65
2022/08/01 04:07:38;;;;;;;16.90;7.60;;;;;;;18.45;100.00;101547.81;4943094;28;20128;-65
2022/08/01 04:10:05;;;;;;;13.70;6.70;;;;;;;18.42;100.00;101542.66;4959497;28;20054;-65
2022/08/01 04:12:32;;;;;;;14.73;8.10;;;;;;;18.38;100.00;101552.91;4959921;28;20625;-65
2022/08/01 04:14:58;;;;;;;13.00;7.13;;;;;;;18.40;100.00;101552.75;4958994;28;20801;-65
2022/08/01 04:17:24;;;;;;;13.48;7.30;;;;;;;18.48;100.00;101555.66;4999177;28;20050;-65
2022/08/01 04:19:50;;;;;;;11.50;7.18;;;;;;;18.49;100.00;101547.44;5001896;28;20541;-65
2022/08/01 04:22:15;;;;;;;11.38;7.35;;;;;;;18.52;100.00;101554.41;5001630;28;20064;-65
2022/08/01 04:24:44;;;;;;;13.40;7.63;;;;;;;18.49;100.00;101557.38;5001342;28;20056;-65
2022/08/01 04:27:19;;;;;;;9.25;6.63;;;;;;;18.57;100.00;101555.72;4998750;28;20041;-66
2022/08/01 04:29:57;;;;;;;10.77;6.65;;;;;;;18.64;100.00;101561.47;4997849;28;20053;-66
2022/08/01 04:32:25;;;;;;;8.30;5.72;;;;;;;18.65;100.00;101557.78;4980124;28;20509;-65
2022/08/01 04:34:55;;;;;;;10.38;5.53;;;;;;;18.62;100.00;101558.03;4996455;28;20044;-66
2022/08/01 04:37:23;;;;;;;7.00;4.85;;;;;;;18.58;100.00;101560.16;4997295;28;20100;-65
2022/08/01 04:39:52;;;;;;;9.05;5.80;;;;;;;18.57;100.00;101565.66;4980459;28;20030;-66
2022/08/01 04:42:18;;;;;;;8.60;4.80;;;;;;;18.49;100.00;101560.94;4997694;28;20038;-66
2022/08/01 04:44:47;;;;;;;7.50;4.82;;;;;;;18.46;100.00;101571.13;4976798;28;20034;-66
2022/08/01 04:47:13;;;;;;;6.40;4.20;;;;;;;18.49;100.00;101570.88;4990873;28;20044;-66
2022/08/01 04:49:40;;;;;;;7.20;4.75;;;;;;;18.57;100.00;101576.47;4996416;28;20045;-67
2022/08/01 04:52:10;;;;;;;7.13;4.25;;;;;;;18.77;100.00;101580.19;4993858;28;20042;-66
2022/08/01 04:54:36;;;;;;;7.40;4.78;;;;;;;18.90;100.00;101580.88;4996138;28;20041;-65
2022/08/01 04:57:05;;;;;;;5.20;3.70;;;;;;;18.93;100.00;101587.88;4993376;28;20054;-66
2022/08/01 04:59:46;;;;;;;8.50;4.80;;;;;;;18.99;100.00;101587.31;4995524;28;20065;-66
2022/08/01 05:02:20;;;;;;;9.27;3.83;;;;;;;19.02;100.00;101579.78;4993763;28;20671;-66
2022/08/01 05:04:46;;;;;;;7.53;4.07;;;;;;;19.31;100.00;101589.91;4995998;28;20042;-66
2022/08/01 05:07:15;;;;;;;6.82;4.00;;;;;;;19.31;100.00;101584.47;4990920;28;20385;-68
2022/08/01 05:09:42;;;;;;;6.28;3.58;;;;;;;19.61;100.00;101589.03;4983478;28;20045;-68
2022/08/01 05:12:09;;;;;;;8.52;3.63;;;;;;;19.75;100.00;101588.66;4982089;28;20117;-67
2022/08/01 05:14:35;;;;;;;3.90;2.85;;;;;;;20.06;100.00;101586.72;5000623;28;20038;-67
2022/08/01 05:17:06;;;;;;;9.07;3.65;;;;;;;20.02;100.00;101585.28;4999532;28;20057;-67
2022/08/01 05:19:32;;;;;;;4.93;3.75;;;;;;;19.95;100.00;101594.13;4980327;28;20034;-67
2022/08/01 05:22:00;;;;;;;8.15;4.20;;;;;;;19.96;100.00;101599.38;4996398;28;20042;-68
2022/08/01 05:24:28;;;;;;;5.80;3.88;;;;;;;19.80;100.00;101597.22;4977118;28;20119;-68
2022/08/01 05:26:56;;;;;;;6.57;4.45;;;;;;;19.84;100.00;101595.97;4980532;28;20041;-68
2022/08/01 05:29:22;;;;;;;6.07;4.38;;;;;;;19.67;100.00;101594.75;4987144;23;20047;-71
2022/08/01 05:31:47;;;;;;;7.68;4.15;;;;;;;19.78;100.00;101592.94;4968089;28;20108;-71
2022/08/01 05:34:12;;;;;;;5.90;4.47;;;;;;;19.95;100.00;101597.69;4967874;28;20038;-70
2022/08/01 05:36:38;;;;;;;6.72;4.90;;;;;;;19.80;100.00;101599.06;4965881;28;20041;-70
2022/08/01 05:39:04;;;;;;;6.72;5.00;;;;;;;19.80;100.00;101597.22;4947100;28;20046;-71
2022/08/01 05:41:30;;;;;;;6.65;4.70;;;;;;;19.79;100.00;101606.34;4967518;28;20081;-71
2022/08/01 05:43:55;;;;;;;8.80;5.35;;;;;;;19.81;100.00;101598.06;4965982;28;20042;-71
2022/08/01 05:46:21;;;;;;;6.07;4.57;;;;;;;19.87;100.00;101598.38;4966339;28;20034;-71
2022/08/01 05:48:46;;;;;;;8.27;5.25;;;;;;;19.91;100.00;101604.38;4965970;28;20836;-71
2022/08/01 05:51:12;;;;;;;8.18;5.35;;;;;;;20.09;100.00;101605.41;4963638;28;20101;-72
2022/08/01 05:53:37;;;;;;;10.35;5.63;;;;;;;20.23;100.00;101603.25;4966565;28;20034;-72
2022/08/01 05:56:03;;;;;;;8.15;5.43;;;;;;;20.38;100.00;101608.16;4952978;28;20031;-71
2022/08/01 05:58:28;;;;;;;8.45;5.18;;;;;;;20.16;100.00;101611.09;4964930;28;20049;-71
2022/08/01 06:00:54;;;;;;;8.40;5.75;;;;;;;20.16;100.00;101608.41;4966354;28;20049;-71
2022/08/01 06:03:19;;;;;;;9.52;5.50;;;;;;;20.18;100.00;101603.69;4965063;28;20057;-72
2022/08/01 06:05:45;;;;;;;11.45;6.32;;;;;;;20.51;100.00;101610.59;4966702;28;20108;-72
2022/08/01 06:08:10;;;;;;;7.00;4.85;;;;;;;20.62;100.00;101613.16;4976838;28;20052;-71
2022/08/01 06:10:36;;;;;;;9.20;6.05;;;;;;;20.68;100.00;101609.00;4969695;28;20038;-71
2022/08/01 06:13:02;;;;;;;10.90;6.15;;;;;;;20.23;100.00;101614.97;4977302;28;20049;-71
2022/08/01 06:15:32;;;;;;;7.97;5.50;;;;;;;20.14;100.00;101618.53;4957819;28;20047;-71
2022/08/01 06:17:57;;;;;;;7.47;6.07;;;;;;;20.08;100.00;101619.06;4960221;28;20621;-71
2022/08/01 06:20:23;;;;;;;9.35;6.45;;;;;;;19.76;100.00;101619.28;4962800;28;20042;-71
2022/08/01 06:22:49;;;;;;;12.05;7.30;;;;;;;19.58;100.00;101627.19;4969708;28;20042;-72
2022/08/01 06:25:14;;;;;;;15.45;5.07;;;;;;;19.49;100.00;101628.84;4978721;28;20033;-71
2022/08/01 06:27:39;;;;;;;5.70;4.38;;;;;;;19.60;100.00;101631.47;4955526;28;20527;-69
2022/08/01 06:30:07;;;;;;;12.05;6.78;;;;;;;19.71;100.00;101625.13;4978942;28;20049;-70
2022/08/01 06:32:33;;;;;;;3.80;3.25;;;;;;;19.66;100.00;101633.63;4967840;28;20034;-69
2022/08/01 06:34:58;;;;;;;1.65;1.52;;;;;;;19.64;100.00;101634.78;4966020;28;20897;-71
2022/08/01 06:37:28;;;;;;;2.22;1.58;;;;;;;19.77;100.00;101627.25;4966076;28;20026;-71
2022/08/01 06:39:53;;;;;;;2.33;1.30;;;;;;;19.81;100.00;101627.84;4967413;28;20046;-70
2022/08/01 06:42:19;;;;;;;1.42;1.33;;;;;;;19.69;100.00;101637.09;4965935;28;20387;-70
2022/08/01 06:44:44;;;;;;;1.77;1.45;;;;;;;19.85;100.00;101632.84;4968434;28;20054;-70
2022/08/01 06:47:10;;;;;;;5.88;1.40;;;;;;;20.03;100.00;101633.06;4967295;28;20038;-71
2022/08/01 06:49:35;;;;;;;1.98;1.13;;;;;;;20.27;100.00;101640.75;4964862;28;20057;-70
2022/08/01 06:52:01;;;;;;;1.10;1.00;;;;;;;19.86;100.00;101639.97;4964247;28;20046;-71
2022/08/01 06:54:26;;;;;;;1.55;1.27;;;;;;;20.40;100.00;101637.81;4966213;28;20116;-70
2022/08/01 06:56:51;;;;;;;1.25;1.15;;;;;;;20.67;100.00;101643.38;4966109;28;20043;-71
2022/08/01 06:59:17;;;;;;;1.92;1.20;;;;;;;20.09;100.00;101645.19;4970359;28;20038;-70
2022/08/01 07:01:43;;;;;;;1.80;1.10;;;;;;;19.92;100.00;101644.81;4967930;28;20038;-72
2022/08/01 07:04:08;;;;;;;1.95;1.40;;;;;;;19.94;100.00;101642.00;4949919;28;20037;-73
2022/08/01 07:06:33;;;;;;;1.17;1.10;;;;;;;19.94;100.00;101643.84;4969342;28;20042;-72
2022/08/01 07:09:00;;;;;;;1.67;1.02;;;;;;;20.06;100.00;101645.44;4983439;28;20053;-71
2022/08/01 07:11:26;;;;;;;1.75;1.33;;;;;;;20.43;100.00;101640.22;4968787;28;20118;-72
2022/08/01 07:13:51;;;;;;;1.55;1.30;;;;;;;20.54;100.00;101639.28;4971845;28;20042;-71
2022/08/01 07:16:17;;;;;;;1.58;1.20;;;;;;;20.68;100.00;101642.41;4982117;28;20031;-72
2022/08/01 07:18:43;;;;;;;2.65;1.30;;;;;;;20.33;100.00;101650.19;4969993;28;20737;-72
2022/08/01 07:21:09;;;;;;;1.45;1.20;;;;;;;20.13;100.00;101654.72;4970864;28;20825;-71
2022/08/01 07:23:34;;;;;;;2.15;1.10;;;;;;;20.09;100.00;101654.16;4983116;28;20038;-71
2022/08/01 07:26:03;;;;;;;3.10;1.52;;;;;;;20.04;100.00;101647.44;4965976;28;20065;-72
2022/08/01 07:28:28;;;;;;;1.45;1.13;;;;;;;19.96;100.00;101660.81;4970383;28;20133;-72
2022/08/01 07:30:54;;;;;;;2.13;1.35;;;;;;;19.69;100.00;101665.00;4969705;28;20038;-72
2022/08/01 07:33:19;;;;;;;3.53;1.45;;;;;;;19.83;100.00;101672.75;4968857;28;20044;-72
2022/08/01 07:35:45;;;;;;;2.25;1.70;;;;;;;20.10;100.00;101661.28;4970276;28;20042;-72
2022/08/01 07:38:11;;;;;;;3.60;1.67;;;;;;;20.28;100.00;101671.41;4977759;28;20050;-72
2022/08/01 07:40:37;;;;;;;1.25;1.10;;;;;;;19.91;100.00;101670.19;4976416;28;20046;-72
2022/08/01 07:43:02;;;;;;;2.28;1.63;;;;;;;19.89;100.00;101677.59;4968541;28;20038;-71
2022/08/01 07:45:28;;;;;;;3.17;1.60;;;;;;;20.15;100.00;101685.22;4970286;28;20038;-71
2022/08/01 07:47:53;;;;;;;1.83;1.60;;;;;;;20.26;100.00;101681.56;4984991;28;20797;-72
2022/08/01 07:50:19;;;;;;;5.50;1.70;;;;;;;20.25;100.00;101685.25;4979540;28;20291;-71
2022/08/01 07:52:44;;;;;;;8.18;2.25;;;;;;;19.73;100.00;101688.09;4972971;28;20096;-71
2022/08/01 07:55:11;;;;;;;2.83;1.60;;;;;;;20.49;100.00;101684.91;4991887;28;20045;-72
2022/08/01 07:57:37;;;;;;;2.10;1.80;;;;;;;20.61;100.00;101684.63;4979550;28;20053;-72
2022/08/01 08:00:05;;;;;;;3.25;2.05;;;;;;;21.02;100.00;101685.31;4971965;28;20034;-71
2022/08/01 08:02:30;;;;;;;4.40;2.03;;;;;;;21.33;100.00;101685.16;4964618;28;20140;-72
2022/08/01 08:04:56;;;;;;;3.15;2.15;;;;;;;21.49;100.00;101688.13;4965549;28;20559;-71
2022/08/01 08:07:21;;;;;;;2.97;2.42;;;;;;;21.25;100.00;101693.16;4970243;28;20037;-71
2022/08/01 08:09:47;;;;;;;4.32;2.15;;;;;;;20.54;100.00;101690.75;4968569;28;20053;-71
2022/08/01 08:12:12;;;;;;;2.17;1.73;;;;;;;20.74;100.00;101687.06;4959313;28;20082;-70
2022/08/01 08:14:38;;;;;;;6.63;1.67;;;;;;;20.52;100.00;101698.16;4990531;28;20034;-71
2022/08/01 08:17:05;;;;;;;6.38;2.38;;;;;;;20.30;100.00;101701.94;4976104;28;20038;-71
2022/08/01 08:19:33;;;;;;;3.95;2.38;;;;;;;19.42;100.00;101708.81;4983855;28;20141;-71
2022/08/01 08:21:58;;;;;;;3.33;2.63;;;;;;;19.36;100.00;101709.34;4970294;28;20045;-71
2022/08/01 08:24:25;;;;;;;3.63;1.88;;;;;;;18.79;100.00;101719.63;4970650;28;20038;-72
2022/08/01 08:26:55;;;;;;;4.07;1.95;;;;;;;18.68;100.00;101714.25;4971236;28;20215;-72
2022/08/01 08:29:21;;;;;;;3.40;2.55;;;;;;;18.95;100.00;101719.19;4970800;28;20105;-72
2022/08/01 08:31:47;;;;;;;4.22;2.08;;;;;;;19.00;100.00;101714.22;4968589;28;20074;-72
2022/08/01 08:34:13;;;;;;;9.60;2.97;;;;;;;19.72;100.00;101713.41;4969759;28;20056;-71
2022/08/01 08:36:38;;;;;;;11.05;3.03;;;;;;;19.80;100.00;101716.31;4970674;28;20043;-71
2022/08/01 08:39:04;;;;;;;4.10;2.83;;;;;;;20.16;100.00;101725.72;4984596;28;20038;-72
2022/08/01 08:41:31;;;;;;;5.93;3.17;;;;;;;20.48;100.00;101712.97;4971425;28;20034;-72
2022/08/01 08:43:58;;;;;;;6.25;2.80;;;;;;;20.78;100.00;101715.56;4971036;28;20150;-71
2022/08/01 08:46:26;;;;;;;7.60;3.08;;;;;;;20.88;100.00;101712.88;4970879;28;20803;-71
2022/08/01 08:48:52;;;;;;;5.10;2.40;;;;;;;21.31;100.00;101719.72;4970729;28;20065;-71
2022/08/01 08:51:19;;;;;;;6.13;2.35;;;;;;;21.21;100.00;101719.69;4975354;28;20042;-71
2022/08/01 08:53:46;;;;;;;3.13;2.30;;;;;;;21.65;100.00;101720.91;4970637;28;20042;-70
2022/08/01 08:56:13;;;;;;;3.70;2.05;;;;;;;21.46;100.00;101724.53;4982924;28;20073;-71
2022/08/01 08:58:43;;;;;;;7.25;2.78;;;;;;;21.70;100.00;101726.75;4970924;28;20042;-71
2022/08/01 09:01:09;;;;;;;7.93;3.15;;;;;;;21.71;100.00;101733.91;4969401;28;20128;-70
2022/08/01 09:03:35;;;;;;;9.40;2.60;;;;;;;21.45;100.00;101725.53;4972201;28;20074;-71
2022/08/01 09:06:01;;;;;;;5.95;2.35;;;;;;;21.38;100.00;101720.84;4982015;28;20038;-71
2022/08/01 09:08:26;;;;;;;5.55;2.83;;;;;;;21.28;100.00;101722.69;4985373;28;20037;-71
2022/08/01 09:10:52;;;;;;;4.00;2.30;;;;;;;20.90;100.00;101722.59;4984951;28;20104;-71
2022/08/01 09:13:18;;;;;;;7.35;3.35;;;;;;;20.85;100.00;101727.56;4970132;28;20612;-71
2022/08/01 09:15:46;;;;;;;9.55;2.53;;;;;;;20.48;100.00;101726.53;4970001;28;20042;-72
2022/08/01 09:18:31;;;;;;;3.90;2.53;;;;;;;20.11;100.00;101735.25;4970519;28;20799;-71
2022/08/01 09:21:06;;;;;;;7.13;2.80;;;;;;;20.05;100.00;101735.81;4969392;28;20029;-72
2022/08/01 09:23:51;;;;;;;5.68;3.15;;;;;;;19.97;100.00;101746.44;4981110;28;20046;-71
2022/08/01 09:26:36;;;;;;;8.02;3.05;;;;;;;19.58;100.00;101744.38;4970580;28;20030;-71
2022/08/01 09:29:04;;;;;;;5.55;3.47;;;;;;;19.56;100.00;101746.34;4969574;28;20073;-71
2022/08/01 09:31:43;;;;;;;9.52;3.90;;;;;;;19.69;100.00;101753.44;4970245;28;20140;-70
2022/08/01 09:34:09;;;;;;;6.18;3.72;;;;;;;19.70;100.00;101749.75;4982285;28;20128;-71
2022/08/01 09:37:11;;;;;;;8.27;3.13;;;;;;;20.73;100.00;101755.81;4969891;28;20035;-71
2022/08/01 09:39:39;;;;;;;6.32;3.15;;;;;;;21.23;100.00;101752.09;4909158;29;20039;-72
2022/08/01 09:42:26;;;;;;;7.32;3.55;;;;;;;20.95;100.00;101755.56;4907262;29;20061;-71
2022/08/01 09:44:53;;;;;;;5.55;3.53;;;;;;;21.19;100.00;101755.13;4891302;29;20054;-71
2022/08/01 09:47:20;;;;;;;6.40;3.70;;;;;;;20.73;100.00;101763.94;4907213;29;20162;-71
2022/08/01 09:49:53;;;;;;;6.50;3.08;;;;;;;21.15;100.00;101755.56;4907141;29;20195;-71
2022/08/01 09:52:25;;;;;;;5.72;3.30;;;;;;;21.32;100.00;101757.56;4902100;29;20382;-71
2022/08/01 09:54:55;;;;;;;6.13;3.38;;;;;;;21.51;100.00;101759.38;4894244;29;20050;-71
2022/08/01 09:57:21;;;;;;;6.05;3.40;;;;;;;21.49;100.00;101764.13;4909299;29;20581;-71
2022/08/01 09:59:52;;;;;;;6.55;3.75;;;;;;;21.28;100.00;101760.66;4892531;29;20051;-72
2022/08/01 10:02:38;;;;;;;6.80;3.33;;;;;;;21.19;100.00;101765.13;4908388;29;20138;-71
2022/08/01 10:05:10;;;;;;;11.80;3.33;;;;;;;20.75;100.00;101772.81;4907394;29;20048;-71
2022/08/01 10:07:54;;;;;;;6.37;4.03;;;;;;;20.54;100.00;101781.03;4919041;29;20062;-71
2022/08/01 10:10:19;;;;;;;7.72;3.70;;;;;;;20.30;100.00;101778.66;4918773;29;20062;-71
2022/08/01 10:12:47;;;;;;;7.85;4.70;;;;;;;20.07;100.00;101777.13;4912655;28;20134;-71
2022/08/01 10:15:16;;;;;;;10.32;4.63;;;;;;;20.09;100.00;101786.00;4961767;28;20042;-71
2022/08/01 10:17:51;;;;;;;5.88;3.50;;;;;;;20.07;100.00;101780.69;4957129;28;20487;-71
2022/08/01 10:20:20;;;;;;;8.85;4.80;;;;;;;20.55;100.00;101785.47;4968452;28;20815;-71
2022/08/01 10:22:46;;;;;;;8.20;4.20;;;;;;;20.58;100.00;101787.91;4963870;28;20421;-70
2022/08/01 10:25:17;;;;;;;9.18;5.20;;;;;;;21.04;100.00;101782.81;4959744;28;20030;-71
2022/08/01 10:27:45;;;;;;;10.98;3.90;;;;;;;20.99;100.00;101785.97;4968153;28;20166;-72
2022/08/01 10:30:11;;;;;;;8.68;4.35;;;;;;;21.09;100.00;101781.41;4970120;28;20072;-71
2022/08/01 10:32:36;;;;;;;13.02;4.38;;;;;;;21.12;100.00;101785.66;4967087;28;20978;-70
2022/08/01 10:35:04;;;;;;;7.43;3.90;;;;;;;21.35;100.00;101780.84;4969309;28;20048;-71
2022/08/01 10:37:30;;;;;;;7.68;4.25;;;;;;;21.74;100.00;101792.50;4967893;28;20034;-72
2022/08/01 10:39:56;;;;;;;8.75;4.65;;;;;;;21.68;100.00;101793.06;4956809;28;21040;-71
2022/08/01 10:42:22;;;;;;;5.40;3.60;;;;;;;21.50;100.00;101784.81;4968454;28;20138;-71
2022/08/01 10:44:49;;;;;;;13.98;4.07;;;;;;;21.42;100.00;101787.38;4967814;28;20034;-71
2022/08/01 10:47:18;;;;;;;6.85;3.22;;;;;;;21.16;97.72;101796.09;4966715;28;21029;-71
2022/08/01 10:50:01;;;;;;;7.30;3.40;;;;;;;21.34;100.00;101796.28;4967963;28;20046;-71
2022/08/01 10:52:26;;;;;;;6.78;3.83;;;;;;;21.79;100.00;101800.16;4967937;28;20030;-71
2022/08/01 10:55:06;;;;;;;8.23;3.35;;;;;;;21.15;100.00;101793.53;4967959;28;20062;-71
2022/08/01 10:57:45;;;;;;;10.52;4.05;;;;;;;21.71;99.34;101784.63;4979759;28;20678;-70
2022/08/01 11:00:29;;;;;;;7.28;3.75;;;;;;;22.29;95.51;101792.63;4954124;28;20049;-71
2022/08/01 11:03:01;;;;;;;5.43;3.20;;;;;;;22.10;90.54;101793.50;4967465;28;20080;-71
2022/08/01 11:05:28;;;;;;;;;;;;;;;21.66;95.29;101787.78;4968691;28;20054;-71
2022/08/01 11:07:54;;;;;;;4.50;2.90;;;;;;;22.31;89.25;101785.16;4966376;28;19926;-69
2022/08/01 11:10:39;;;;;;;10.73;3.17;;;;;;;22.18;89.22;101790.06;4952252;28;20109;-70
2022/08/01 11:13:07;;;;;;;7.53;2.70;;;;;;;21.90;90.27;101787.28;4967082;28;20081;-70
2022/08/01 11:15:37;;;;;;;6.63;2.85;;;;;;;22.66;83.54;101778.94;4968149;28;20042;-69
2022/08/01 11:18:25;;;;;;;6.55;3.13;;;;;;;23.47;84.94;101773.41;4967138;28;20049;-71